createdAt,value
2018-12-17T00:00:20.342Z,98113.36
2018-12-17T00:02:49.394Z,98113.35
2018-12-17T00:05:18.480Z,98106.47
2018-12-17T00:07:47.239Z,98106.08
2018-12-17T00:10:16.268Z,98105.62
2018-12-17T00:12:45.269Z,98115.95
2018-12-17T00:15:14.392Z,98111.19
2018-12-17T00:17:43.324Z,98115.51
2018-12-17T00:20:12.443Z,98106.43
2018-12-17T00:22:41.240Z,98111.59
2018-12-17T00:25:10.254Z,98110.74
2018-12-17T00:27:39.141Z,98105.98
2018-12-17T00:30:09.845Z,98108.17
2018-12-17T00:32:38.533Z,98103.89
2018-12-17T00:35:07.520Z,98100.03
2018-12-17T00:37:36.594Z,98100.03
2018-12-17T00:40:07.144Z,98099.58
2018-12-17T00:42:36.120Z,98091.44
2018-12-17T00:45:05.614Z,98089.31
2018-12-17T00:47:34.404Z,98088.95
2018-12-17T00:50:03.178Z,98091.54
2018-12-17T00:52:32.252Z,98093.70
2018-12-17T00:55:01.294Z,98097.57
2018-12-17T00:57:30.411Z,98100.59
2018-12-17T00:59:59.044Z,98097.17
2018-12-17T01:02:28.000Z,98104.93
2018-12-17T01:04:57.001Z,98106.70
2018-12-17T01:07:30.983Z,98104.95
2018-12-17T01:10:00.069Z,98101.48
2018-12-17T01:12:28.753Z,98095.41
2018-12-17T01:14:57.659Z,98100.09
2018-12-17T01:17:26.532Z,98095.36
2018-12-17T01:19:55.366Z,98096.19
2018-12-17T01:22:24.503Z,98092.30
2018-12-17T01:24:53.556Z,98091.02
2018-12-17T01:27:22.785Z,98094.48
2018-12-17T01:29:51.805Z,98101.38
2018-12-17T01:32:20.895Z,98096.21
2018-12-17T01:34:49.759Z,98091.05
2018-12-17T01:37:18.867Z,98093.63
2018-12-17T01:39:47.749Z,98094.48
2018-12-17T01:42:16.647Z,98098.77
2018-12-17T01:44:45.756Z,98091.03
2018-12-17T01:47:14.671Z,98086.64
2018-12-17T01:49:43.754Z,98085.73
2018-12-17T01:52:12.787Z,98089.61
2018-12-17T01:54:41.723Z,98087.45
2018-12-17T01:57:10.596Z,98093.05
2018-12-17T01:59:39.444Z,98087.45
2018-12-17T02:02:08.199Z,98086.61
2018-12-17T02:04:37.244Z,98082.68
2018-12-17T02:07:06.348Z,98075.39
2018-12-17T02:09:35.471Z,98077.53
2018-12-17T02:12:04.616Z,98077.98
2018-12-17T02:14:33.666Z,98076.70
2018-12-17T02:17:02.541Z,98068.56
2018-12-17T02:19:31.543Z,98066.42
2018-12-17T02:22:00.618Z,98060.35
2018-12-17T02:24:29.628Z,98060.80
2018-12-17T02:26:58.616Z,98062.51
2018-12-17T02:29:27.620Z,98056.94
2018-12-17T02:31:56.430Z,98055.66
2018-12-17T02:34:25.261Z,98046.62
2018-12-17T02:36:54.203Z,98054.37
2018-12-17T02:39:23.221Z,98054.36
2018-12-17T02:41:52.371Z,98050.02
2018-12-17T02:44:21.476Z,98049.59
2018-12-17T02:46:50.459Z,98043.08
2018-12-17T02:49:19.580Z,98040.96
2018-12-17T02:51:48.677Z,98037.09
2018-12-17T02:54:17.332Z,98039.28
2018-12-17T02:56:46.251Z,98040.99
2018-12-17T02:59:15.317Z,98035.83
2018-12-17T03:01:44.106Z,98025.97
2018-12-17T03:04:13.104Z,98033.30
2018-12-17T03:06:42.201Z,98039.75
2018-12-17T03:09:10.965Z,98033.30
2018-12-17T03:11:39.979Z,98031.14
2018-12-17T03:14:09.059Z,98034.63
2018-12-17T03:16:38.203Z,98029.94
2018-12-17T03:19:07.151Z,98035.99
2018-12-17T03:21:35.966Z,98032.54
2018-12-17T03:24:05.402Z,98032.14
2018-12-17T03:26:34.279Z,98032.61
2018-12-17T03:29:03.233Z,98041.66
2018-12-17T03:31:32.416Z,98044.22
2018-12-17T03:34:01.397Z,98051.03
2018-12-17T03:36:30.123Z,98051.42
2018-12-17T03:38:59.239Z,98052.29
2018-12-17T03:41:28.116Z,98051.81
2018-12-17T03:43:56.867Z,98059.05
2018-12-17T03:46:25.572Z,98056.45
2018-12-17T03:48:54.649Z,98059.83
2018-12-17T03:51:23.620Z,98059.41
2018-12-17T03:53:52.739Z,98059.81
2018-12-17T03:56:21.529Z,98061.97
2018-12-17T03:58:50.588Z,98061.12
2018-12-17T04:01:19.508Z,98062.42
2018-12-17T04:03:48.511Z,98067.16
2018-12-17T04:06:17.451Z,98070.16
2018-12-17T04:08:46.122Z,98070.16
2018-12-17T04:11:14.903Z,98075.34
2018-12-17T04:13:43.902Z,98075.39
2018-12-17T04:16:12.607Z,98078.42
2018-12-17T04:18:41.534Z,98087.05
2018-12-17T04:21:10.571Z,98078.02
2018-12-17T04:23:39.529Z,98083.25
2018-12-17T04:26:08.510Z,98084.56
2018-12-17T04:28:37.433Z,98091.02
2018-12-17T04:31:06.593Z,98093.13
2018-12-17T04:33:35.493Z,98094.00
2018-12-17T04:36:04.701Z,98086.25
2018-12-17T04:38:33.609Z,98083.27
2018-12-17T04:41:02.738Z,98079.80
2018-12-17T04:43:31.635Z,98084.97
2018-12-17T04:46:00.684Z,98074.63
2018-12-17T04:48:29.658Z,98078.97
2018-12-17T04:50:58.777Z,98072.97
2018-12-17T04:53:27.753Z,98068.27
2018-12-17T04:55:56.934Z,98076.42
2018-12-17T04:58:26.022Z,98075.15
2018-12-17T05:00:55.125Z,98079.12
2018-12-17T05:03:24.032Z,98084.28
2018-12-17T05:05:53.247Z,98085.56
2018-12-17T05:08:22.196Z,98087.76
2018-12-17T05:10:50.884Z,98084.77
2018-12-17T05:13:19.617Z,98087.36
2018-12-17T05:15:48.705Z,98086.13
2018-12-17T05:18:17.657Z,98083.95
2018-12-17T05:20:46.850Z,98086.94
2018-12-17T05:23:15.722Z,98091.64
2018-12-17T05:25:44.836Z,98086.88
2018-12-17T05:28:14.039Z,98094.20
2018-12-17T05:30:42.982Z,98089.02
2018-12-17T05:33:12.252Z,98085.14
2018-12-17T05:35:41.253Z,98090.73
2018-12-17T05:38:10.282Z,98092.88
2018-12-17T05:40:40.962Z,98095.06
2018-12-17T05:43:09.912Z,98092.08
2018-12-17T05:45:38.917Z,98087.34
2018-12-17T05:48:07.818Z,98094.20
2018-12-17T05:50:37.316Z,98091.22
2018-12-17T05:53:06.169Z,98086.05
2018-12-17T05:55:34.892Z,98087.75
2018-12-17T05:58:03.926Z,98092.49
2018-12-17T06:00:33.266Z,98096.41
2018-12-17T06:03:02.178Z,98095.17
2018-12-17T06:05:30.924Z,98089.55
2018-12-17T06:08:00.018Z,98093.91
2018-12-17T06:10:28.808Z,98103.02
2018-12-17T06:12:57.787Z,98092.67
2018-12-17T06:15:26.732Z,98093.09
2018-12-17T06:17:55.516Z,98093.03
2018-12-17T06:20:24.604Z,98096.48
2018-12-17T06:22:53.648Z,98098.19
2018-12-17T06:25:22.513Z,98093.50
2018-12-17T06:27:51.320Z,98105.59
2018-12-17T06:30:20.476Z,98093.09
2018-12-17T06:32:49.532Z,98092.19
2018-12-17T06:35:18.604Z,98101.66
2018-12-17T06:37:47.359Z,98100.77
2018-12-17T06:40:16.596Z,98102.94
2018-12-17T06:42:45.439Z,98105.50
2018-12-17T06:45:14.332Z,98103.33
2018-12-17T06:47:43.320Z,98107.62
2018-12-17T06:50:12.313Z,98101.64
2018-12-17T06:52:41.341Z,98104.65
2018-12-17T06:55:10.460Z,98101.23
2018-12-17T06:57:39.615Z,98103.42
2018-12-17T07:00:09.102Z,98109.95
2018-12-17T07:02:37.991Z,98113.03
2018-12-17T07:05:07.251Z,98119.13
2018-12-17T07:07:36.243Z,98118.77
2018-12-17T07:10:05.711Z,98122.66
2018-12-17T07:12:34.726Z,98125.73
2018-12-17T07:15:03.837Z,98134.89
2018-12-17T07:17:32.968Z,98134.49
2018-12-17T07:20:02.106Z,98132.36
2018-12-17T07:22:30.905Z,98128.91
2018-12-17T07:24:59.780Z,98123.32
2018-12-17T07:27:29.539Z,98119.44
2018-12-17T07:29:58.538Z,98128.91
2018-12-17T07:32:27.586Z,98131.95
2018-12-17T07:34:56.678Z,98129.38
2018-12-17T07:37:25.402Z,98134.95
2018-12-17T07:39:54.242Z,98135.78
2018-12-17T07:42:22.976Z,98133.19
2018-12-17T07:44:51.948Z,98131.91
2018-12-17T07:47:20.910Z,98136.20
2018-12-17T07:49:49.838Z,98141.83
2018-12-17T07:52:18.807Z,98146.14
2018-12-17T07:54:47.850Z,98141.42
2018-12-17T07:57:17.083Z,98144.43
2018-12-17T07:59:46.240Z,98150.94
2018-12-17T08:02:24.664Z,98151.41
2018-12-17T08:04:53.801Z,98151.42
2018-12-17T08:07:22.597Z,98150.63
2018-12-17T08:09:51.432Z,98150.66
2018-12-17T08:12:20.381Z,98153.26
2018-12-17T08:14:49.282Z,98151.57
2018-12-17T08:17:18.581Z,98152.47
2018-12-17T08:19:47.708Z,98149.03
2018-12-17T08:22:16.628Z,98136.51
2018-12-17T08:24:45.500Z,98142.55
2018-12-17T08:27:14.461Z,98144.28
2018-12-17T08:29:43.504Z,98155.09
2018-12-17T08:32:12.277Z,98153.33
2018-12-17T08:34:40.954Z,98146.85
2018-12-17T08:37:10.075Z,98138.64
2018-12-17T08:39:38.973Z,98133.02
2018-12-17T08:42:07.991Z,98142.09
2018-12-17T08:44:37.015Z,98147.23
2018-12-17T08:47:05.808Z,98149.34
2018-12-17T08:49:34.751Z,98142.41
2018-12-17T08:52:03.577Z,98141.11
2018-12-17T08:54:32.580Z,98143.28
2018-12-17T08:57:01.399Z,98142.02
2018-12-17T08:59:30.220Z,98134.25
2018-12-17T09:01:58.976Z,98134.29
2018-12-17T09:04:27.811Z,98129.58
2018-12-17T09:06:56.840Z,98124.39
2018-12-17T09:09:25.578Z,98133.06
2018-12-17T09:11:54.256Z,98130.91
2018-12-17T09:14:23.328Z,98121.84
2018-12-17T09:16:52.309Z,98117.07
2018-12-17T09:19:21.012Z,98113.17
2018-12-17T09:21:49.783Z,98111.01
2018-12-17T09:24:18.852Z,98109.70
2018-12-17T09:26:47.696Z,98111.87
2018-12-17T09:29:16.772Z,98109.30
2018-12-17T09:31:45.518Z,98106.28
2018-12-17T09:34:14.424Z,98106.28
2018-12-17T09:36:43.543Z,98104.05
2018-12-17T09:39:12.298Z,98100.12
2018-12-17T09:41:41.295Z,98101.28
2018-12-17T09:44:10.275Z,98095.92
2018-12-17T09:46:39.293Z,98099.27
2018-12-17T09:49:07.992Z,98098.39
2018-12-17T09:51:36.856Z,98095.34
2018-12-17T09:54:05.682Z,98085.96
2018-12-17T09:56:34.499Z,98081.37
2018-12-17T09:59:03.213Z,98078.41
2018-12-17T10:01:32.111Z,98065.44
2018-12-17T10:04:01.116Z,98073.19
2018-12-17T10:06:30.177Z,98071.91
2018-12-17T10:08:59.074Z,98061.56
2018-12-17T10:11:28.162Z,98053.34
2018-12-17T10:13:57.054Z,98053.78
2018-12-17T10:16:25.799Z,98051.64
2018-12-17T10:18:54.562Z,98045.19
2018-12-17T10:21:23.273Z,98045.67
2018-12-17T10:23:52.406Z,98043.09
2018-12-17T10:26:21.237Z,98031.89
2018-12-17T10:28:50.089Z,98031.48
2018-12-17T10:31:18.854Z,98030.19
2018-12-17T10:33:47.583Z,98027.17
2018-12-17T10:36:16.444Z,98023.70
2018-12-17T10:38:45.492Z,98017.63
2018-12-17T10:41:14.460Z,98018.83
2018-12-17T10:43:43.089Z,98012.70
2018-12-17T10:46:11.799Z,98015.67
2018-12-17T10:48:40.587Z,98008.83
2018-12-17T10:51:09.286Z,98003.23
2018-12-17T10:53:38.040Z,97997.64
2018-12-17T10:56:07.152Z,97998.47
2018-12-17T10:58:36.041Z,97999.31
2018-12-17T11:01:10.359Z,97994.03
2018-12-17T11:03:43.298Z,97994.85
2018-12-17T11:06:16.995Z,97989.63
2018-12-17T11:08:45.689Z,97991.67
2018-12-17T11:11:14.422Z,97997.92
2018-12-17T11:13:43.117Z,97990.62
2018-12-17T11:16:11.871Z,97989.77
2018-12-17T11:18:40.679Z,97984.44
2018-12-17T11:21:09.398Z,97976.14
2018-12-17T11:23:38.118Z,97976.88
2018-12-17T11:26:06.847Z,97972.44
2018-12-17T11:28:35.462Z,97981.30
2018-12-17T11:31:04.275Z,97976.63
2018-12-17T11:33:33.042Z,97980.05
2018-12-17T11:36:01.693Z,97982.02
2018-12-17T11:38:30.652Z,97981.98
2018-12-17T11:40:59.646Z,97985.20
2018-12-17T11:43:28.828Z,97989.70
2018-12-17T11:45:57.886Z,97986.38
2018-12-17T11:48:26.892Z,97983.03
2018-12-17T11:50:55.875Z,97982.25
2018-12-17T11:56:04.836Z,97979.55
2018-12-17T11:58:33.476Z,97977.86
2018-12-17T12:01:07.144Z,97982.76
2018-12-17T12:03:38.852Z,97979.89
2018-12-17T12:06:13.641Z,97977.42
2018-12-17T12:08:38.419Z,97982.94
2018-12-17T12:11:07.168Z,97974.86
2018-12-17T12:13:35.917Z,97977.16
2018-12-17T12:16:04.623Z,97973.69
2018-12-17T12:18:33.329Z,97970.00
2018-12-17T12:21:02.173Z,97971.71
2018-12-17T12:23:30.871Z,97977.61
2018-12-17T12:25:59.615Z,97975.19
2018-12-17T12:28:28.309Z,97983.48
2018-12-17T12:31:00.413Z,97983.84
2018-12-17T12:33:27.831Z,97980.93
2018-12-17T12:35:56.499Z,97981.17
2018-12-17T12:38:25.269Z,97984.39
2018-12-17T12:40:54.123Z,97984.86
2018-12-17T12:43:23.213Z,97984.08
2018-12-17T12:45:52.000Z,97985.09
2018-12-17T12:48:20.733Z,97991.69
2018-12-17T12:50:49.426Z,97991.80
2018-12-17T12:53:18.281Z,98000.52
2018-12-17T12:55:46.979Z,97995.34
2018-12-17T12:58:15.642Z,97999.64
2018-12-17T13:00:44.283Z,98000.52
2018-12-17T13:03:13.353Z,98001.72
2018-12-17T13:05:42.146Z,98005.26
2018-12-17T13:08:11.234Z,98014.37
2018-12-17T13:10:39.940Z,98007.39
2018-12-17T13:13:08.908Z,98007.49
2018-12-17T13:15:37.811Z,98013.16
2018-12-17T13:18:06.773Z,98015.47
2018-12-17T13:20:35.468Z,98010.28
2018-12-17T13:23:05.368Z,98017.72
2018-12-17T13:25:38.878Z,98014.31
2018-12-17T13:28:07.883Z,98022.55
2018-12-17T13:30:37.090Z,98021.27
2018-12-17T13:33:06.038Z,98023.83
2018-12-17T13:35:35.070Z,98023.38
2018-12-17T13:38:04.053Z,98026.80
2018-12-17T13:40:33.002Z,98033.70
2018-12-17T13:43:01.892Z,98037.61
2018-12-17T13:45:30.817Z,98031.52
2018-12-17T13:47:59.962Z,98040.59
2018-12-17T13:50:38.958Z,98034.57
2018-12-17T13:53:13.163Z,98043.27
2018-12-17T13:55:42.257Z,98046.77
2018-12-17T13:58:12.056Z,98041.59
2018-12-17T14:00:41.156Z,98034.29
2018-12-17T14:03:10.180Z,98044.65
2018-12-17T14:05:39.257Z,98045.08
2018-12-17T14:08:08.307Z,98043.80
2018-12-17T14:10:42.575Z,98048.61
2018-12-17T14:13:11.345Z,98045.15
2018-12-17T14:15:45.675Z,98051.67
2018-12-17T14:18:19.760Z,98049.55
2018-12-17T14:20:53.904Z,98052.55
2018-12-17T14:23:22.836Z,98051.23
2018-12-17T14:25:51.769Z,98053.88
2018-12-17T14:28:20.928Z,98044.77
2018-12-17T14:30:49.871Z,98049.56
2018-12-17T14:33:18.864Z,98048.70
2018-12-17T14:35:53.101Z,98049.16
2018-12-17T14:38:22.012Z,98053.45
2018-12-17T14:40:50.973Z,98054.31
2018-12-17T14:43:20.074Z,98054.32
2018-12-17T14:45:48.800Z,98043.54
2018-12-17T14:48:17.945Z,98050.88
2018-12-17T14:50:46.623Z,98051.34
2018-12-17T14:53:15.550Z,98052.20
2018-12-17T14:55:44.832Z,98059.55
2018-12-17T14:58:13.663Z,98062.99
2018-12-17T15:00:43.052Z,98069.44
2018-12-17T15:03:12.777Z,98067.69
2018-12-17T15:05:41.905Z,98066.81
2018-12-17T15:08:11.092Z,98064.20
2018-12-17T15:10:39.935Z,98057.75
2018-12-17T15:13:08.723Z,98053.88
2018-12-17T15:15:37.952Z,98058.22
2018-12-17T15:18:07.059Z,98056.08
2018-12-17T15:20:35.860Z,98059.12
2018-12-17T15:23:05.044Z,98070.37
2018-12-17T15:25:34.148Z,98063.02
2018-12-17T15:28:03.237Z,98081.18
2018-12-17T15:30:32.292Z,98087.66
2018-12-17T15:33:01.648Z,98084.19
2018-12-17T15:35:30.788Z,98090.28
2018-12-17T15:37:59.705Z,98093.29
2018-12-17T15:40:28.983Z,98088.56
2018-12-17T15:42:57.884Z,98093.31
2018-12-17T15:45:26.855Z,98090.28
2018-12-17T15:47:55.539Z,98103.27
2018-12-17T15:50:24.527Z,98102.82
2018-12-17T15:52:53.640Z,98106.72
2018-12-17T15:55:22.576Z,98109.31
2018-12-17T15:57:51.398Z,98108.86
2018-12-17T16:00:20.295Z,98107.98
2018-12-17T16:02:49.373Z,98114.47
2018-12-17T16:05:18.549Z,98118.36
2018-12-17T16:07:47.559Z,98120.97
2018-12-17T16:10:16.345Z,98124.42
2018-12-17T16:12:45.036Z,98123.55
2018-12-17T16:15:13.768Z,98124.84
2018-12-17T16:17:42.643Z,98128.73
2018-12-17T16:20:11.757Z,98122.66
2018-12-17T16:22:40.608Z,98127.45
2018-12-17T16:25:09.761Z,98127.42
2018-12-17T16:27:38.799Z,98135.22
2018-12-17T16:30:10.030Z,98137.37
2018-12-17T16:32:38.883Z,98142.98
2018-12-17T16:35:08.762Z,98146.01
2018-12-17T16:37:37.741Z,98142.58
2018-12-17T16:40:07.464Z,98145.16
2018-12-17T16:42:37.088Z,98147.31
2018-12-17T16:45:07.624Z,98151.64
2018-12-17T16:47:36.978Z,98156.83
2018-12-17T16:50:08.033Z,98152.94
2018-12-17T16:52:37.132Z,98160.28
2018-12-17T16:55:06.233Z,98156.81
2018-12-17T16:57:34.962Z,98155.97
2018-12-17T17:00:04.337Z,98153.38
2018-12-17T17:02:33.536Z,98158.10
2018-12-17T17:05:02.686Z,98157.23
2018-12-17T17:07:31.552Z,98161.98
2018-12-17T17:10:04.467Z,98165.91
2018-12-17T17:12:33.543Z,98168.92
2018-12-17T17:15:03.011Z,98176.27
2018-12-17T17:17:31.949Z,98177.56
2018-12-17T17:20:00.858Z,98181.45
2018-12-17T17:22:30.195Z,98182.33
2018-12-17T17:24:59.120Z,98184.89
2018-12-17T17:27:28.163Z,98187.05
2018-12-17T17:29:57.302Z,98189.23
2018-12-17T17:32:26.448Z,98196.58
2018-12-17T17:34:55.326Z,98186.19
2018-12-17T17:37:24.341Z,98189.23
2018-12-17T17:39:53.278Z,98193.53
2018-12-17T17:42:22.316Z,98192.27
2018-12-17T17:44:51.499Z,98191.39
2018-12-17T17:47:20.475Z,98190.97
2018-12-17T17:49:49.576Z,98191.83
2018-12-17T17:52:18.721Z,98187.48
2018-12-17T17:54:47.635Z,98190.09
2018-12-17T17:57:16.691Z,98188.36
2018-12-17T17:59:45.815Z,98192.67
2018-12-17T18:02:18.824Z,98200.88
2018-12-17T18:04:45.775Z,98203.05
2018-12-17T18:07:14.668Z,98207.38
2018-12-17T18:09:43.534Z,98208.25
2018-12-17T18:12:13.205Z,98209.98
2018-12-17T18:14:43.090Z,98214.72
2018-12-17T18:17:12.076Z,98212.13
2018-12-17T18:19:41.513Z,98214.71
2018-12-17T18:22:10.616Z,98216.41
2018-12-17T18:24:40.065Z,98224.19
2018-12-17T18:27:09.125Z,98224.22
2018-12-17T18:29:38.198Z,98229.85
2018-12-17T18:32:07.313Z,98231.16
2018-12-17T18:34:36.551Z,98227.66
2018-12-17T18:37:05.441Z,98230.69
2018-12-17T18:39:34.827Z,98240.63
2018-12-17T18:42:03.792Z,98230.69
2018-12-17T18:44:32.826Z,98236.72
2018-12-17T18:47:01.950Z,98234.13
2018-12-17T18:49:32.028Z,98234.55
2018-12-17T18:52:01.725Z,98234.55
2018-12-17T18:54:30.681Z,98241.03
2018-12-17T18:56:59.786Z,98237.15
2018-12-17T18:59:28.553Z,98239.28
2018-12-17T19:01:57.501Z,98234.56
2018-12-17T19:04:26.673Z,98236.73
2018-12-17T19:06:55.761Z,98239.31
2018-12-17T19:09:24.798Z,98236.72
2018-12-17T19:11:53.839Z,98233.70
2018-12-17T19:14:22.777Z,98240.61
2018-12-17T19:16:51.468Z,98233.70
2018-12-17T19:19:21.068Z,98234.16
2018-12-17T19:21:49.781Z,98229.81
2018-12-17T19:24:18.853Z,98234.14
2018-12-17T19:26:47.727Z,98234.16
2018-12-17T19:29:16.785Z,98236.33
2018-12-17T19:31:45.701Z,98237.20
2018-12-17T19:34:14.749Z,98235.46
2018-12-17T19:36:43.772Z,98238.48
2018-12-17T19:39:12.911Z,98246.27
2018-12-17T19:41:42.377Z,98245.81
2018-12-17T19:44:11.275Z,98254.48
2018-12-17T19:46:40.175Z,98255.35
2018-12-17T19:49:08.947Z,98260.10
2018-12-17T19:51:37.577Z,98255.80
2018-12-17T19:54:06.714Z,98261.84
2018-12-17T19:56:35.652Z,98255.34
2018-12-17T19:59:04.449Z,98252.33
2018-12-17T20:01:33.334Z,98254.05
2018-12-17T20:04:02.265Z,98251.05
2018-12-17T20:06:31.264Z,98251.47
2018-12-17T20:09:00.318Z,98256.66
2018-12-17T20:11:29.302Z,98261.43
2018-12-17T20:13:58.171Z,98249.30
2018-12-17T20:16:27.108Z,98262.73
2018-12-17T20:18:56.181Z,98262.28
2018-12-17T20:21:25.316Z,98264.03
2018-12-17T20:23:54.066Z,98277.86
2018-12-17T20:26:23.174Z,98276.14
2018-12-17T20:28:51.884Z,98275.24
2018-12-17T20:31:20.804Z,98288.24
2018-12-17T20:33:49.668Z,98287.36
2018-12-17T20:36:18.744Z,98284.75
2018-12-17T20:38:47.857Z,98290.36
2018-12-17T20:41:16.596Z,98287.30
2018-12-17T20:43:45.457Z,98292.93
2018-12-17T20:46:14.473Z,98286.45
2018-12-17T20:48:43.566Z,98293.35
2018-12-17T20:51:12.620Z,98292.90
2018-12-17T20:53:41.568Z,98289.02
2018-12-17T20:56:10.196Z,98286.42
2018-12-17T20:58:39.228Z,98289.89
2018-12-17T21:01:08.323Z,98290.76
2018-12-17T21:03:37.148Z,98292.05
2018-12-17T21:06:06.028Z,98290.76
2018-12-17T21:08:35.118Z,98290.36
2018-12-17T21:11:04.545Z,98288.16
2018-12-17T21:13:33.902Z,98291.63
2018-12-17T21:16:02.932Z,98295.09
2018-12-17T21:18:31.976Z,98296.39
2018-12-17T21:21:00.843Z,98302.45
2018-12-17T21:23:30.180Z,98305.07
2018-12-17T21:25:59.169Z,98309.81
2018-12-17T21:28:28.261Z,98311.53
2018-12-17T21:30:57.223Z,98317.13
2018-12-17T21:33:26.363Z,98317.16
2018-12-17T21:35:55.449Z,98318.45
2018-12-17T21:38:24.492Z,98308.98
2018-12-17T21:40:53.531Z,98314.16
2018-12-17T21:43:22.458Z,98311.13
2018-12-17T21:45:51.525Z,98315.02
2018-12-17T21:48:20.441Z,98311.12
2018-12-17T21:50:49.493Z,98312.42
2018-12-17T21:53:18.429Z,98310.26
2018-12-17T21:55:47.131Z,98305.47
2018-12-17T21:58:16.088Z,98302.88
2018-12-17T22:00:44.898Z,98308.51
2018-12-17T22:03:13.951Z,98309.38
2018-12-17T22:05:43.045Z,98305.05
2018-12-17T22:08:12.854Z,98306.34
2018-12-17T22:10:41.907Z,98304.14
2018-12-17T22:13:10.865Z,98298.95
2018-12-17T22:15:39.709Z,98294.16
2018-12-17T22:18:08.824Z,98293.28
2018-12-17T22:20:37.881Z,98297.58
2018-12-17T22:23:06.913Z,98302.30
2018-12-17T22:25:35.901Z,98298.38
2018-12-17T22:28:04.609Z,98296.66
2018-12-17T22:30:33.693Z,98296.66
2018-12-17T22:33:02.893Z,98303.59
2018-12-17T22:35:31.872Z,98304.44
2018-12-17T22:38:00.613Z,98306.60
2018-12-17T22:40:29.650Z,98305.31
2018-12-17T22:42:58.848Z,98304.43
2018-12-17T22:45:29.493Z,98312.62
2018-12-17T22:47:58.824Z,98316.09
2018-12-17T22:50:27.872Z,98314.33
2018-12-17T22:52:56.569Z,98310.44
2018-12-17T22:55:25.763Z,98306.50
2018-12-17T22:57:54.746Z,98306.97
2018-12-17T23:00:24.148Z,98311.27
2018-12-17T23:02:53.038Z,98314.78
2018-12-17T23:05:22.098Z,98321.27
2018-12-17T23:07:51.008Z,98320.81
2018-12-17T23:10:32.815Z,98314.75
2018-12-17T23:13:12.558Z,98313.91
2018-12-17T23:15:52.325Z,98315.63
2018-12-17T23:18:19.864Z,98313.50
2018-12-17T23:20:48.759Z,98315.27
2018-12-17T23:23:17.791Z,98313.13
2018-12-17T23:25:47.863Z,98317.86
2018-12-17T23:28:16.715Z,98319.61
2018-12-17T23:30:45.848Z,98324.80
2018-12-17T23:33:14.760Z,98318.73
2018-12-17T23:35:43.489Z,98325.63
2018-12-17T23:38:12.366Z,98313.09
2018-12-17T23:40:41.418Z,98314.43
2018-12-17T23:43:10.602Z,98319.16
2018-12-17T23:45:39.760Z,98312.26
2018-12-17T23:48:08.831Z,98313.55
2018-12-17T23:50:38.157Z,98309.20
2018-12-17T23:53:07.244Z,98317.39
2018-12-17T23:55:36.247Z,98310.49
2018-12-17T23:58:05.277Z,98312.62
